sensor_id;sensor_type;location;lat;lon;timestamp;P1;durP1;ratioP1;P2;durP2;ratioP2
23290;SDS011;11814;44.686;10.842;2024-01-10T00:02:00;20.77;;;12.23;;
23290;SDS011;11814;44.686;10.842;2024-01-10T00:04:26;21.80;;;11.65;;
23290;SDS011;11814;44.686;10.842;2024-01-10T00:06:52;20.00;;;11.85;;
23290;SDS011;11814;44.686;10.842;2024-01-10T00:09:17;24.58;;;12.48;;
23290;SDS011;11814;44.686;10.842;2024-01-10T00:11:43;22.63;;;13.40;;
23290;SDS011;11814;44.686;10.842;2024-01-10T00:14:09;25.90;;;13.48;;
23290;SDS011;11814;44.686;10.842;2024-01-10T00:16:35;26.77;;;12.85;;
23290;SDS011;11814;44.686;10.842;2024-01-10T00:19:01;20.27;;;12.25;;
23290;SDS011;11814;44.686;10.842;2024-01-10T00:21:27;28.90;;;13.60;;
23290;SDS011;11814;44.686;10.842;2024-01-10T00:23:53;28.10;;;12.80;;
23290;SDS011;11814;44.686;10.842;2024-01-10T00:26:19;25.63;;;13.70;;
23290;SDS011;11814;44.686;10.842;2024-01-10T00:28:44;24.23;;;12.93;;
23290;SDS011;11814;44.686;10.842;2024-01-10T00:31:13;28.58;;;14.30;;
23290;SDS011;11814;44.686;10.842;2024-01-10T00:33:39;25.05;;;13.60;;
23290;SDS011;11814;44.686;10.842;2024-01-10T00:36:05;25.50;;;13.60;;
23290;SDS011;11814;44.686;10.842;2024-01-10T00:38:31;23.67;;;12.70;;
23290;SDS011;11814;44.686;10.842;2024-01-10T00:40:57;24.02;;;13.43;;
23290;SDS011;11814;44.686;10.842;2024-01-10T00:43:22;27.58;;;14.43;;
23290;SDS011;11814;44.686;10.842;2024-01-10T00:45:48;29.48;;;16.15;;
23290;SDS011;11814;44.686;10.842;2024-01-10T00:48:14;26.52;;;15.35;;
23290;SDS011;11814;44.686;10.842;2024-01-10T00:50:39;28.17;;;15.07;;
23290;SDS011;11814;44.686;10.842;2024-01-10T00:53:05;23.75;;;14.20;;
23290;SDS011;11814;44.686;10.842;2024-01-10T00:55:31;27.35;;;15.80;;
23290;SDS011;11814;44.686;10.842;2024-01-10T00:57:56;25.35;;;15.43;;
23290;SDS011;11814;44.686;10.842;2024-01-10T01:00:22;31.85;;;16.15;;
23290;SDS011;11814;44.686;10.842;2024-01-10T01:02:47;26.23;;;15.48;;
23290;SDS011;11814;44.686;10.842;2024-01-10T01:05:13;27.05;;;16.38;;
23290;SDS011;11814;44.686;10.842;2024-01-10T01:07:38;28.80;;;16.35;;
23290;SDS011;11814;44.686;10.842;2024-01-10T01:10:05;34.60;;;15.88;;
23290;SDS011;11814;44.686;10.842;2024-01-10T01:12:33;24.52;;;14.80;;
23290;SDS011;11814;44.686;10.842;2024-01-10T01:14:59;27.65;;;15.23;;
23290;SDS011;11814;44.686;10.842;2024-01-10T01:17:24;26.35;;;14.90;;
23290;SDS011;11814;44.686;10.842;2024-01-10T01:19:50;23.45;;;15.07;;
23290;SDS011;11814;44.686;10.842;2024-01-10T01:22:16;30.60;;;14.65;;
23290;SDS011;11814;44.686;10.842;2024-01-10T01:24:41;27.52;;;15.73;;
23290;SDS011;11814;44.686;10.842;2024-01-10T01:27:07;24.42;;;14.77;;
23290;SDS011;11814;44.686;10.842;2024-01-10T01:29:32;29.83;;;15.70;;
23290;SDS011;11814;44.686;10.842;2024-01-10T01:31:58;28.77;;;15.55;;
23290;SDS011;11814;44.686;10.842;2024-01-10T01:34:24;30.27;;;15.57;;
23290;SDS011;11814;44.686;10.842;2024-01-10T01:36:49;31.30;;;14.93;;
23290;SDS011;11814;44.686;10.842;2024-01-10T01:39:16;23.73;;;14.35;;
23290;SDS011;11814;44.686;10.842;2024-01-10T01:41:42;23.10;;;14.27;;
23290;SDS011;11814;44.686;10.842;2024-01-10T01:44:08;27.02;;;14.90;;
23290;SDS011;11814;44.686;10.842;2024-01-10T01:46:34;26.50;;;14.40;;
23290;SDS011;11814;44.686;10.842;2024-01-10T01:49:00;26.90;;;13.70;;
23290;SDS011;11814;44.686;10.842;2024-01-10T01:51:26;24.60;;;14.35;;
23290;SDS011;11814;44.686;10.842;2024-01-10T01:53:54;34.03;;;15.75;;
23290;SDS011;11814;44.686;10.842;2024-01-10T01:56:20;29.65;;;17.77;;
23290;SDS011;11814;44.686;10.842;2024-01-10T01:58:46;35.30;;;16.88;;
23290;SDS011;11814;44.686;10.842;2024-01-10T02:01:15;25.05;;;15.02;;
23290;SDS011;11814;44.686;10.842;2024-01-10T02:03:41;25.13;;;14.45;;
23290;SDS011;11814;44.686;10.842;2024-01-10T02:06:07;25.52;;;13.85;;
23290;SDS011;11814;44.686;10.842;2024-01-10T02:08:33;22.35;;;14.23;;
23290;SDS011;11814;44.686;10.842;2024-01-10T02:11:02;23.77;;;13.80;;
23290;SDS011;11814;44.686;10.842;2024-01-10T02:13:28;25.20;;;14.98;;
23290;SDS011;11814;44.686;10.842;2024-01-10T02:15:55;26.33;;;14.77;;
23290;SDS011;11814;44.686;10.842;2024-01-10T02:18:21;22.10;;;13.65;;
23290;SDS011;11814;44.686;10.842;2024-01-10T02:20:47;30.00;;;16.83;;
23290;SDS011;11814;44.686;10.842;2024-01-10T02:23:12;27.73;;;15.25;;
23290;SDS011;11814;44.686;10.842;2024-01-10T02:25:39;27.63;;;14.13;;
23290;SDS011;11814;44.686;10.842;2024-01-10T02:28:05;26.88;;;14.68;;
23290;SDS011;11814;44.686;10.842;2024-01-10T02:30:32;25.75;;;14.85;;
23290;SDS011;11814;44.686;10.842;2024-01-10T02:32:58;28.50;;;15.88;;
23290;SDS011;11814;44.686;10.842;2024-01-10T02:35:24;26.38;;;14.48;;
23290;SDS011;11814;44.686;10.842;2024-01-10T02:37:49;27.73;;;15.57;;
23290;SDS011;11814;44.686;10.842;2024-01-10T02:40:16;32.47;;;16.48;;
23290;SDS011;11814;44.686;10.842;2024-01-10T02:42:42;28.70;;;14.75;;
23290;SDS011;11814;44.686;10.842;2024-01-10T02:45:08;28.67;;;14.77;;
23290;SDS011;11814;44.686;10.842;2024-01-10T02:47:34;26.42;;;15.73;;
23290;SDS011;11814;44.686;10.842;2024-01-10T02:49:59;32.40;;;15.45;;
23290;SDS011;11814;44.686;10.842;2024-01-10T02:52:25;29.20;;;14.70;;
23290;SDS011;11814;44.686;10.842;2024-01-10T02:54:51;23.73;;;14.15;;
23290;SDS011;11814;44.686;10.842;2024-01-10T02:57:16;29.38;;;15.75;;
23290;SDS011;11814;44.686;10.842;2024-01-10T02:59:42;23.85;;;14.75;;
23290;SDS011;11814;44.686;10.842;2024-01-10T03:02:07;22.55;;;14.45;;
23290;SDS011;11814;44.686;10.842;2024-01-10T03:04:33;23.00;;;13.57;;
23290;SDS011;11814;44.686;10.842;2024-01-10T03:06:59;25.63;;;15.52;;
23290;SDS011;11814;44.686;10.842;2024-01-10T03:09:24;26.25;;;15.02;;
23290;SDS011;11814;44.686;10.842;2024-01-10T03:11:50;29.30;;;15.70;;
23290;SDS011;11814;44.686;10.842;2024-01-10T03:14:16;33.42;;;15.43;;
23290;SDS011;11814;44.686;10.842;2024-01-10T03:16:41;28.63;;;15.35;;
23290;SDS011;11814;44.686;10.842;2024-01-10T03:19:07;29.83;;;15.60;;
23290;SDS011;11814;44.686;10.842;2024-01-10T03:21:32;25.08;;;14.40;;
23290;SDS011;11814;44.686;10.842;2024-01-10T03:23:59;27.60;;;15.60;;
23290;SDS011;11814;44.686;10.842;2024-01-10T03:26:25;23.33;;;15.27;;
23290;SDS011;11814;44.686;10.842;2024-01-10T03:28:52;26.35;;;15.15;;
23290;SDS011;11814;44.686;10.842;2024-01-10T03:31:18;26.27;;;15.43;;
23290;SDS011;11814;44.686;10.842;2024-01-10T03:33:43;27.10;;;15.25;;
23290;SDS011;11814;44.686;10.842;2024-01-10T03:36:11;23.73;;;15.25;;
23290;SDS011;11814;44.686;10.842;2024-01-10T03:38:39;25.90;;;15.98;;
23290;SDS011;11814;44.686;10.842;2024-01-10T03:41:04;23.30;;;15.02;;
23290;SDS011;11814;44.686;10.842;2024-01-10T03:43:30;23.95;;;14.80;;
23290;SDS011;11814;44.686;10.842;2024-01-10T03:45:56;31.90;;;16.08;;
23290;SDS011;11814;44.686;10.842;2024-01-10T03:48:22;26.33;;;15.23;;
23290;SDS011;11814;44.686;10.842;2024-01-10T03:50:48;31.10;;;15.90;;
23290;SDS011;11814;44.686;10.842;2024-01-10T03:53:14;27.25;;;16.05;;
23290;SDS011;11814;44.686;10.842;2024-01-10T03:55:39;25.75;;;14.70;;
23290;SDS011;11814;44.686;10.842;2024-01-10T03:58:05;25.85;;;13.98;;
23290;SDS011;11814;44.686;10.842;2024-01-10T04:00:30;28.77;;;15.77;;
23290;SDS011;11814;44.686;10.842;2024-01-10T04:02:56;27.73;;;15.25;;
23290;SDS011;11814;44.686;10.842;2024-01-10T04:05:22;24.50;;;15.75;;
23290;SDS011;11814;44.686;10.842;2024-01-10T04:07:49;26.88;;;15.10;;
23290;SDS011;11814;44.686;10.842;2024-01-10T04:10:15;26.70;;;15.80;;
23290;SDS011;11814;44.686;10.842;2024-01-10T04:12:42;27.25;;;15.13;;
23290;SDS011;11814;44.686;10.842;2024-01-10T04:15:08;28.48;;;16.98;;
23290;SDS011;11814;44.686;10.842;2024-01-10T04:17:34;24.40;;;16.02;;
23290;SDS011;11814;44.686;10.842;2024-01-10T04:19:59;24.65;;;14.85;;
23290;SDS011;11814;44.686;10.842;2024-01-10T04:22:25;23.20;;;14.55;;
23290;SDS011;11814;44.686;10.842;2024-01-10T04:24:51;27.20;;;15.82;;
23290;SDS011;11814;44.686;10.842;2024-01-10T04:27:16;24.80;;;15.27;;
23290;SDS011;11814;44.686;10.842;2024-01-10T04:29:45;27.48;;;14.60;;
23290;SDS011;11814;44.686;10.842;2024-01-10T04:32:11;27.10;;;15.60;;
23290;SDS011;11814;44.686;10.842;2024-01-10T04:34:36;27.38;;;15.55;;
23290;SDS011;11814;44.686;10.842;2024-01-10T04:37:02;29.77;;;15.10;;
23290;SDS011;11814;44.686;10.842;2024-01-10T04:39:28;27.63;;;15.10;;
23290;SDS011;11814;44.686;10.842;2024-01-10T04:41:54;26.52;;;15.30;;
23290;SDS011;11814;44.686;10.842;2024-01-10T04:44:20;25.67;;;15.20;;
23290;SDS011;11814;44.686;10.842;2024-01-10T04:46:45;24.20;;;14.75;;
23290;SDS011;11814;44.686;10.842;2024-01-10T04:49:11;27.25;;;15.25;;
23290;SDS011;11814;44.686;10.842;2024-01-10T04:51:37;24.55;;;14.75;;
23290;SDS011;11814;44.686;10.842;2024-01-10T04:54:04;29.05;;;14.63;;
23290;SDS011;11814;44.686;10.842;2024-01-10T04:56:29;26.58;;;15.48;;
23290;SDS011;11814;44.686;10.842;2024-01-10T04:58:55;28.33;;;15.07;;
23290;SDS011;11814;44.686;10.842;2024-01-10T05:01:20;21.35;;;13.93;;
23290;SDS011;11814;44.686;10.842;2024-01-10T05:03:46;30.08;;;15.32;;
23290;SDS011;11814;44.686;10.842;2024-01-10T05:06:12;26.67;;;15.60;;
23290;SDS011;11814;44.686;10.842;2024-01-10T05:08:37;28.17;;;15.82;;
23290;SDS011;11814;44.686;10.842;2024-01-10T05:11:03;24.52;;;15.65;;
23290;SDS011;11814;44.686;10.842;2024-01-10T05:13:29;26.70;;;16.38;;
23290;SDS011;11814;44.686;10.842;2024-01-10T05:15:54;29.02;;;17.90;;
23290;SDS011;11814;44.686;10.842;2024-01-10T05:18:20;25.48;;;15.98;;
23290;SDS011;11814;44.686;10.842;2024-01-10T05:20:46;28.13;;;14.98;;
23290;SDS011;11814;44.686;10.842;2024-01-10T05:23:12;25.23;;;14.48;;
23290;SDS011;11814;44.686;10.842;2024-01-10T05:25:38;26.55;;;15.25;;
23290;SDS011;11814;44.686;10.842;2024-01-10T05:28:04;26.42;;;15.27;;
23290;SDS011;11814;44.686;10.842;2024-01-10T05:30:30;27.55;;;14.70;;
23290;SDS011;11814;44.686;10.842;2024-01-10T05:32:56;26.23;;;15.77;;
23290;SDS011;11814;44.686;10.842;2024-01-10T05:35:23;30.13;;;16.05;;
23290;SDS011;11814;44.686;10.842;2024-01-10T05:37:51;26.83;;;14.68;;
23290;SDS011;11814;44.686;10.842;2024-01-10T05:40:17;31.40;;;15.40;;
23290;SDS011;11814;44.686;10.842;2024-01-10T05:42:43;24.35;;;14.65;;
23290;SDS011;11814;44.686;10.842;2024-01-10T05:45:09;24.65;;;14.27;;
23290;SDS011;11814;44.686;10.842;2024-01-10T05:47:35;32.00;;;15.35;;
23290;SDS011;11814;44.686;10.842;2024-01-10T05:50:02;27.83;;;14.57;;
23290;SDS011;11814;44.686;10.842;2024-01-10T05:52:31;27.23;;;14.85;;
23290;SDS011;11814;44.686;10.842;2024-01-10T05:54:57;25.27;;;15.10;;
23290;SDS011;11814;44.686;10.842;2024-01-10T05:57:22;25.00;;;14.65;;
23290;SDS011;11814;44.686;10.842;2024-01-10T05:59:48;36.60;;;16.85;;
23290;SDS011;11814;44.686;10.842;2024-01-10T06:02:14;25.63;;;15.27;;
23290;SDS011;11814;44.686;10.842;2024-01-10T06:04:41;31.38;;;16.08;;
23290;SDS011;11814;44.686;10.842;2024-01-10T06:07:07;34.53;;;15.38;;
23290;SDS011;11814;44.686;10.842;2024-01-10T06:09:32;27.55;;;15.57;;
23290;SDS011;11814;44.686;10.842;2024-01-10T06:11:58;25.52;;;14.90;;
23290;SDS011;11814;44.686;10.842;2024-01-10T06:14:24;38.08;;;18.38;;
23290;SDS011;11814;44.686;10.842;2024-01-10T06:16:49;30.48;;;14.80;;
23290;SDS011;11814;44.686;10.842;2024-01-10T06:19:15;27.45;;;14.77;;
23290;SDS011;11814;44.686;10.842;2024-01-10T06:21:40;31.10;;;15.10;;
23290;SDS011;11814;44.686;10.842;2024-01-10T06:24:07;36.08;;;15.85;;
23290;SDS011;11814;44.686;10.842;2024-01-10T06:26:33;26.30;;;14.60;;
23290;SDS011;11814;44.686;10.842;2024-01-10T06:28:58;26.33;;;14.63;;
23290;SDS011;11814;44.686;10.842;2024-01-10T06:31:24;25.30;;;14.55;;
23290;SDS011;11814;44.686;10.842;2024-01-10T06:33:50;30.15;;;15.38;;
23290;SDS011;11814;44.686;10.842;2024-01-10T06:36:15;28.35;;;14.13;;
23290;SDS011;11814;44.686;10.842;2024-01-10T06:38:41;25.20;;;14.27;;
23290;SDS011;11814;44.686;10.842;2024-01-10T06:41:07;30.65;;;15.38;;
23290;SDS011;11814;44.686;10.842;2024-01-10T06:43:33;31.98;;;14.77;;
23290;SDS011;11814;44.686;10.842;2024-01-10T06:45:59;25.00;;;14.02;;
23290;SDS011;11814;44.686;10.842;2024-01-10T06:48:25;26.52;;;13.98;;
23290;SDS011;11814;44.686;10.842;2024-01-10T06:50:50;28.38;;;15.20;;
23290;SDS011;11814;44.686;10.842;2024-01-10T06:53:16;22.95;;;14.10;;
23290;SDS011;11814;44.686;10.842;2024-01-10T06:55:41;21.02;;;13.30;;
23290;SDS011;11814;44.686;10.842;2024-01-10T06:58:07;23.02;;;13.82;;
23290;SDS011;11814;44.686;10.842;2024-01-10T07:00:33;30.35;;;14.90;;
23290;SDS011;11814;44.686;10.842;2024-01-10T07:03:00;24.80;;;14.43;;
23290;SDS011;11814;44.686;10.842;2024-01-10T07:05:27;27.85;;;15.23;;
23290;SDS011;11814;44.686;10.842;2024-01-10T07:07:53;33.53;;;14.45;;
23290;SDS011;11814;44.686;10.842;2024-01-10T07:10:19;26.63;;;14.68;;
23290;SDS011;11814;44.686;10.842;2024-01-10T07:12:44;25.13;;;14.90;;
23290;SDS011;11814;44.686;10.842;2024-01-10T07:15:10;23.08;;;14.20;;
23290;SDS011;11814;44.686;10.842;2024-01-10T07:17:36;30.35;;;14.75;;
23290;SDS011;11814;44.686;10.842;2024-01-10T07:20:02;31.55;;;15.00;;
23290;SDS011;11814;44.686;10.842;2024-01-10T07:22:28;29.17;;;15.07;;
23290;SDS011;11814;44.686;10.842;2024-01-10T07:24:54;30.35;;;16.65;;
23290;SDS011;11814;44.686;10.842;2024-01-10T07:27:19;27.38;;;16.17;;
23290;SDS011;11814;44.686;10.842;2024-01-10T07:29:45;28.65;;;16.08;;
23290;SDS011;11814;44.686;10.842;2024-01-10T07:32:11;27.73;;;15.32;;
23290;SDS011;11814;44.686;10.842;2024-01-10T07:34:39;32.88;;;15.70;;
23290;SDS011;11814;44.686;10.842;2024-01-10T07:37:05;31.15;;;14.45;;
23290;SDS011;11814;44.686;10.842;2024-01-10T07:39:31;26.83;;;14.27;;
23290;SDS011;11814;44.686;10.842;2024-01-10T07:41:56;25.40;;;14.70;;
23290;SDS011;11814;44.686;10.842;2024-01-10T07:44:23;28.90;;;14.77;;
23290;SDS011;11814;44.686;10.842;2024-01-10T07:46:49;28.80;;;15.23;;
23290;SDS011;11814;44.686;10.842;2024-01-10T07:49:18;36.25;;;14.98;;
23290;SDS011;11814;44.686;10.842;2024-01-10T07:51:46;35.75;;;14.85;;
23290;SDS011;11814;44.686;10.842;2024-01-10T07:54:12;34.85;;;13.70;;
23290;SDS011;11814;44.686;10.842;2024-01-10T07:56:38;33.45;;;14.73;;
23290;SDS011;11814;44.686;10.842;2024-01-10T07:59:04;32.40;;;13.98;;
23290;SDS011;11814;44.686;10.842;2024-01-10T08:01:30;29.05;;;14.18;;
23290;SDS011;11814;44.686;10.842;2024-01-10T08:03:56;26.50;;;13.75;;
23290;SDS011;11814;44.686;10.842;2024-01-10T08:06:21;25.23;;;14.27;;
23290;SDS011;11814;44.686;10.842;2024-01-10T08:08:47;25.88;;;14.65;;
23290;SDS011;11814;44.686;10.842;2024-01-10T08:11:15;28.38;;;15.38;;
23290;SDS011;11814;44.686;10.842;2024-01-10T08:13:41;28.20;;;14.45;;
23290;SDS011;11814;44.686;10.842;2024-01-10T08:16:07;28.17;;;14.52;;
23290;SDS011;11814;44.686;10.842;2024-01-10T08:18:33;25.45;;;14.40;;
23290;SDS011;11814;44.686;10.842;2024-01-10T08:20:59;30.52;;;14.52;;
23290;SDS011;11814;44.686;10.842;2024-01-10T08:23:25;35.67;;;14.90;;
23290;SDS011;11814;44.686;10.842;2024-01-10T08:25:51;30.17;;;16.85;;
23290;SDS011;11814;44.686;10.842;2024-01-10T08:28:16;27.42;;;15.65;;
23290;SDS011;11814;44.686;10.842;2024-01-10T08:30:42;28.17;;;15.63;;
23290;SDS011;11814;44.686;10.842;2024-01-10T08:33:07;33.17;;;17.70;;
23290;SDS011;11814;44.686;10.842;2024-01-10T08:35:33;32.50;;;17.27;;
23290;SDS011;11814;44.686;10.842;2024-01-10T08:37:59;30.30;;;16.33;;
23290;SDS011;11814;44.686;10.842;2024-01-10T08:40:24;27.08;;;15.52;;
23290;SDS011;11814;44.686;10.842;2024-01-10T08:42:51;29.15;;;16.85;;
23290;SDS011;11814;44.686;10.842;2024-01-10T08:45:17;37.83;;;17.42;;
23290;SDS011;11814;44.686;10.842;2024-01-10T08:47:43;30.15;;;16.15;;
23290;SDS011;11814;44.686;10.842;2024-01-10T08:50:09;31.60;;;16.33;;
23290;SDS011;11814;44.686;10.842;2024-01-10T08:52:35;30.00;;;16.42;;
23290;SDS011;11814;44.686;10.842;2024-01-10T08:55:05;28.35;;;16.33;;
23290;SDS011;11814;44.686;10.842;2024-01-10T08:57:31;25.73;;;16.05;;
23290;SDS011;11814;44.686;10.842;2024-01-10T08:59:57;23.40;;;14.57;;
23290;SDS011;11814;44.686;10.842;2024-01-10T09:02:22;33.50;;;17.13;;
23290;SDS011;11814;44.686;10.842;2024-01-10T09:04:49;26.58;;;14.85;;
23290;SDS011;11814;44.686;10.842;2024-01-10T09:07:15;27.80;;;15.82;;
23290;SDS011;11814;44.686;10.842;2024-01-10T09:09:43;30.33;;;15.48;;
23290;SDS011;11814;44.686;10.842;2024-01-10T09:12:08;25.83;;;14.85;;
23290;SDS011;11814;44.686;10.842;2024-01-10T09:14:34;25.70;;;14.73;;
23290;SDS011;11814;44.686;10.842;2024-01-10T09:16:59;25.40;;;15.27;;
23290;SDS011;11814;44.686;10.842;2024-01-10T09:19:28;25.38;;;15.25;;
23290;SDS011;11814;44.686;10.842;2024-01-10T09:21:54;24.63;;;14.35;;
23290;SDS011;11814;44.686;10.842;2024-01-10T09:24:21;26.33;;;14.98;;
23290;SDS011;11814;44.686;10.842;2024-01-10T09:26:47;32.28;;;15.35;;
23290;SDS011;11814;44.686;10.842;2024-01-10T09:29:12;26.23;;;15.95;;
23290;SDS011;11814;44.686;10.842;2024-01-10T09:31:38;29.77;;;15.43;;
23290;SDS011;11814;44.686;10.842;2024-01-10T09:34:04;22.23;;;15.40;;
23290;SDS011;11814;44.686;10.842;2024-01-10T09:36:30;24.30;;;14.52;;
23290;SDS011;11814;44.686;10.842;2024-01-10T09:38:55;32.20;;;16.25;;
23290;SDS011;11814;44.686;10.842;2024-01-10T09:41:21;24.20;;;14.82;;
23290;SDS011;11814;44.686;10.842;2024-01-10T09:43:47;33.47;;;15.57;;
23290;SDS011;11814;44.686;10.842;2024-01-10T09:46:13;28.38;;;14.77;;
23290;SDS011;11814;44.686;10.842;2024-01-10T09:48:40;27.25;;;15.75;;
23290;SDS011;11814;44.686;10.842;2024-01-10T09:51:06;24.25;;;15.45;;
23290;SDS011;11814;44.686;10.842;2024-01-10T09:53:33;27.50;;;14.35;;
23290;SDS011;11814;44.686;10.842;2024-01-10T09:56:03;22.05;;;13.85;;
23290;SDS011;11814;44.686;10.842;2024-01-10T09:58:30;20.13;;;13.32;;
23290;SDS011;11814;44.686;10.842;2024-01-10T10:00:58;24.95;;;14.10;;
23290;SDS011;11814;44.686;10.842;2024-01-10T10:03:24;27.33;;;13.90;;
23290;SDS011;11814;44.686;10.842;2024-01-10T10:05:51;21.23;;;12.85;;
23290;SDS011;11814;44.686;10.842;2024-01-10T10:08:16;21.77;;;13.35;;
23290;SDS011;11814;44.686;10.842;2024-01-10T10:10:48;20.38;;;12.63;;
23290;SDS011;11814;44.686;10.842;2024-01-10T10:13:32;16.88;;;11.85;;
23290;SDS011;11814;44.686;10.842;2024-01-10T10:16:01;21.52;;;12.88;;
23290;SDS011;11814;44.686;10.842;2024-01-10T10:18:28;20.00;;;13.10;;
23290;SDS011;11814;44.686;10.842;2024-01-10T10:23:34;20.58;;;12.85;;
23290;SDS011;11814;44.686;10.842;2024-01-10T10:26:09;18.63;;;12.77;;
23290;SDS011;11814;44.686;10.842;2024-01-10T10:28:36;18.65;;;12.02;;
23290;SDS011;11814;44.686;10.842;2024-01-10T10:31:01;20.98;;;11.82;;
23290;SDS011;11814;44.686;10.842;2024-01-10T10:33:27;17.88;;;12.70;;
23290;SDS011;11814;44.686;10.842;2024-01-10T10:35:55;20.27;;;12.23;;
23290;SDS011;11814;44.686;10.842;2024-01-10T10:38:23;18.10;;;11.20;;
23290;SDS011;11814;44.686;10.842;2024-01-10T10:40:49;15.73;;;11.00;;
23290;SDS011;11814;44.686;10.842;2024-01-10T10:43:15;18.80;;;12.30;;
23290;SDS011;11814;44.686;10.842;2024-01-10T10:45:46;16.63;;;12.05;;
23290;SDS011;11814;44.686;10.842;2024-01-10T10:48:13;20.85;;;12.10;;
23290;SDS011;11814;44.686;10.842;2024-01-10T10:50:42;22.02;;;11.88;;
23290;SDS011;11814;44.686;10.842;2024-01-10T10:53:19;18.60;;;12.30;;
23290;SDS011;11814;44.686;10.842;2024-01-10T10:55:47;16.02;;;11.55;;
23290;SDS011;11814;44.686;10.842;2024-01-10T10:58:14;19.23;;;13.25;;
23290;SDS011;11814;44.686;10.842;2024-01-10T11:00:40;19.77;;;11.75;;
23290;SDS011;11814;44.686;10.842;2024-01-10T11:03:07;19.02;;;12.70;;
23290;SDS011;11814;44.686;10.842;2024-01-10T11:05:39;20.15;;;12.48;;
23290;SDS011;11814;44.686;10.842;2024-01-10T11:08:06;18.60;;;12.00;;
23290;SDS011;11814;44.686;10.842;2024-01-10T11:10:34;16.25;;;11.95;;
23290;SDS011;11814;44.686;10.842;2024-01-10T11:13:13;20.98;;;12.18;;
23290;SDS011;11814;44.686;10.842;2024-01-10T11:21:29;23.13;;;13.32;;
23290;SDS011;11814;44.686;10.842;2024-01-10T11:24:18;17.25;;;11.05;;
23290;SDS011;11814;44.686;10.842;2024-01-10T11:26:45;20.05;;;12.77;;
23290;SDS011;11814;44.686;10.842;2024-01-10T11:29:11;17.73;;;11.82;;
23290;SDS011;11814;44.686;10.842;2024-01-10T11:31:38;17.55;;;11.45;;
23290;SDS011;11814;44.686;10.842;2024-01-10T11:34:04;17.60;;;11.85;;
23290;SDS011;11814;44.686;10.842;2024-01-10T11:36:29;19.95;;;11.90;;
23290;SDS011;11814;44.686;10.842;2024-01-10T11:38:59;17.17;;;12.20;;
23290;SDS011;11814;44.686;10.842;2024-01-10T11:41:35;20.85;;;12.52;;
23290;SDS011;11814;44.686;10.842;2024-01-10T11:46:47;19.83;;;12.20;;
23290;SDS011;11814;44.686;10.842;2024-01-10T11:49:15;20.15;;;12.57;;
23290;SDS011;11814;44.686;10.842;2024-01-10T11:51:42;18.48;;;12.68;;
23290;SDS011;11814;44.686;10.842;2024-01-10T11:54:34;19.27;;;12.55;;
23290;SDS011;11814;44.686;10.842;2024-01-10T11:57:28;18.20;;;12.55;;
23290;SDS011;11814;44.686;10.842;2024-01-10T11:59:53;20.10;;;12.57;;
23290;SDS011;11814;44.686;10.842;2024-01-10T12:02:21;18.33;;;12.35;;
23290;SDS011;11814;44.686;10.842;2024-01-10T12:04:48;17.65;;;12.15;;
23290;SDS011;11814;44.686;10.842;2024-01-10T12:07:15;17.45;;;12.45;;
23290;SDS011;11814;44.686;10.842;2024-01-10T12:09:42;18.90;;;13.15;;
23290;SDS011;11814;44.686;10.842;2024-01-10T12:12:08;18.30;;;12.75;;
23290;SDS011;11814;44.686;10.842;2024-01-10T12:14:36;19.40;;;11.48;;
23290;SDS011;11814;44.686;10.842;2024-01-10T12:17:02;19.42;;;12.70;;
23290;SDS011;11814;44.686;10.842;2024-01-10T12:19:29;21.88;;;13.30;;
23290;SDS011;11814;44.686;10.842;2024-01-10T12:21:55;22.80;;;15.90;;
23290;SDS011;11814;44.686;10.842;2024-01-10T12:24:21;19.75;;;13.13;;
23290;SDS011;11814;44.686;10.842;2024-01-10T12:26:47;19.27;;;12.80;;
23290;SDS011;11814;44.686;10.842;2024-01-10T12:29:17;18.17;;;12.68;;
23290;SDS011;11814;44.686;10.842;2024-01-10T12:31:46;22.10;;;13.68;;
23290;SDS011;11814;44.686;10.842;2024-01-10T12:34:12;19.67;;;12.90;;
23290;SDS011;11814;44.686;10.842;2024-01-10T12:36:39;24.55;;;13.18;;
23290;SDS011;11814;44.686;10.842;2024-01-10T12:39:05;21.98;;;13.02;;
23290;SDS011;11814;44.686;10.842;2024-01-10T12:41:33;24.50;;;13.13;;
23290;SDS011;11814;44.686;10.842;2024-01-10T12:44:00;20.48;;;12.68;;
23290;SDS011;11814;44.686;10.842;2024-01-10T12:46:28;22.27;;;12.95;;
23290;SDS011;11814;44.686;10.842;2024-01-10T12:49:06;18.58;;;13.32;;
23290;SDS011;11814;44.686;10.842;2024-01-10T12:51:33;20.98;;;12.85;;
23290;SDS011;11814;44.686;10.842;2024-01-10T12:54:01;18.88;;;12.48;;
23290;SDS011;11814;44.686;10.842;2024-01-10T12:56:28;18.88;;;13.13;;
23290;SDS011;11814;44.686;10.842;2024-01-10T12:58:55;19.65;;;13.35;;
23290;SDS011;11814;44.686;10.842;2024-01-10T13:01:21;18.13;;;13.02;;
23290;SDS011;11814;44.686;10.842;2024-01-10T13:03:48;16.92;;;11.82;;
23290;SDS011;11814;44.686;10.842;2024-01-10T13:06:14;19.02;;;12.60;;
23290;SDS011;11814;44.686;10.842;2024-01-10T13:08:41;18.88;;;12.77;;
23290;SDS011;11814;44.686;10.842;2024-01-10T13:11:07;22.90;;;12.80;;
23290;SDS011;11814;44.686;10.842;2024-01-10T13:13:37;16.90;;;12.02;;
23290;SDS011;11814;44.686;10.842;2024-01-10T13:16:03;18.50;;;12.65;;
23290;SDS011;11814;44.686;10.842;2024-01-10T13:18:29;21.58;;;12.35;;
23290;SDS011;11814;44.686;10.842;2024-01-10T13:20:55;22.67;;;13.40;;
23290;SDS011;11814;44.686;10.842;2024-01-10T13:23:21;18.48;;;12.55;;
23290;SDS011;11814;44.686;10.842;2024-01-10T13:25:50;21.63;;;12.70;;
23290;SDS011;11814;44.686;10.842;2024-01-10T13:28:16;18.90;;;13.10;;
23290;SDS011;11814;44.686;10.842;2024-01-10T13:30:43;18.58;;;12.50;;
23290;SDS011;11814;44.686;10.842;2024-01-10T13:33:09;18.35;;;13.43;;
23290;SDS011;11814;44.686;10.842;2024-01-10T13:35:35;17.73;;;12.57;;
23290;SDS011;11814;44.686;10.842;2024-01-10T13:38:01;19.38;;;13.05;;
23290;SDS011;11814;44.686;10.842;2024-01-10T13:40:27;19.77;;;13.57;;
23290;SDS011;11814;44.686;10.842;2024-01-10T13:42:53;19.42;;;12.77;;
23290;SDS011;11814;44.686;10.842;2024-01-10T13:45:19;17.92;;;13.38;;
23290;SDS011;11814;44.686;10.842;2024-01-10T13:47:45;21.58;;;13.93;;
23290;SDS011;11814;44.686;10.842;2024-01-10T13:50:12;18.95;;;12.55;;
23290;SDS011;11814;44.686;10.842;2024-01-10T13:52:38;21.10;;;13.65;;
23290;SDS011;11814;44.686;10.842;2024-01-10T13:55:03;22.75;;;13.98;;
23290;SDS011;11814;44.686;10.842;2024-01-10T13:57:30;20.23;;;13.93;;
23290;SDS011;11814;44.686;10.842;2024-01-10T13:59:57;21.73;;;13.27;;
23290;SDS011;11814;44.686;10.842;2024-01-10T14:02:23;18.63;;;12.75;;
23290;SDS011;11814;44.686;10.842;2024-01-10T14:04:49;22.00;;;13.35;;
23290;SDS011;11814;44.686;10.842;2024-01-10T14:07:15;20.00;;;13.27;;
23290;SDS011;11814;44.686;10.842;2024-01-10T14:09:41;21.10;;;13.13;;
23290;SDS011;11814;44.686;10.842;2024-01-10T14:12:07;18.80;;;13.20;;
23290;SDS011;11814;44.686;10.842;2024-01-10T14:14:32;20.17;;;12.75;;
23290;SDS011;11814;44.686;10.842;2024-01-10T14:16:58;20.08;;;13.60;;